sensor_id;sensor_type;location;lat;lon;timestamp;P1;durP1;ratioP1;P2;durP2;ratioP2
63688;SDS011;54895;40.928;14.480;2023-12-20T00:01:43;65.63;;;43.85;;
63688;SDS011;54895;40.928;14.480;2023-12-20T00:04:10;70.28;;;42.13;;
63688;SDS011;54895;40.928;14.480;2023-12-20T00:06:36;65.30;;;41.35;;
63688;SDS011;54895;40.928;14.480;2023-12-20T00:09:02;62.20;;;39.00;;
63688;SDS011;54895;40.928;14.480;2023-12-20T00:11:28;54.42;;;34.90;;
63688;SDS011;54895;40.928;14.480;2023-12-20T00:13:54;51.55;;;32.63;;
63688;SDS011;54895;40.928;14.480;2023-12-20T00:16:20;56.33;;;34.63;;
63688;SDS011;54895;40.928;14.480;2023-12-20T00:18:46;51.42;;;34.42;;
63688;SDS011;54895;40.928;14.480;2023-12-20T00:21:12;52.85;;;34.38;;
63688;SDS011;54895;40.928;14.480;2023-12-20T00:23:38;55.55;;;34.47;;
63688;SDS011;54895;40.928;14.480;2023-12-20T00:26:04;52.28;;;34.10;;
63688;SDS011;54895;40.928;14.480;2023-12-20T00:28:30;57.65;;;36.25;;
63688;SDS011;54895;40.928;14.480;2023-12-20T00:30:56;59.85;;;38.83;;
63688;SDS011;54895;40.928;14.480;2023-12-20T00:33:22;61.40;;;38.00;;
63688;SDS011;54895;40.928;14.480;2023-12-20T00:35:48;63.85;;;38.88;;
63688;SDS011;54895;40.928;14.480;2023-12-20T00:38:14;59.17;;;39.47;;
63688;SDS011;54895;40.928;14.480;2023-12-20T00:40:40;60.58;;;39.30;;
63688;SDS011;54895;40.928;14.480;2023-12-20T00:43:06;61.47;;;38.70;;
63688;SDS011;54895;40.928;14.480;2023-12-20T00:45:32;60.95;;;37.90;;
63688;SDS011;54895;40.928;14.480;2023-12-20T00:47:58;61.83;;;38.70;;
63688;SDS011;54895;40.928;14.480;2023-12-20T00:50:25;60.80;;;38.15;;
63688;SDS011;54895;40.928;14.480;2023-12-20T00:52:51;59.85;;;38.60;;
63688;SDS011;54895;40.928;14.480;2023-12-20T00:55:17;62.38;;;37.65;;
63688;SDS011;54895;40.928;14.480;2023-12-20T00:57:43;57.78;;;37.05;;
63688;SDS011;54895;40.928;14.480;2023-12-20T01:00:09;54.95;;;36.30;;
63688;SDS011;54895;40.928;14.480;2023-12-20T01:02:39;52.15;;;33.83;;
63688;SDS011;54895;40.928;14.480;2023-12-20T01:05:05;54.97;;;33.88;;
63688;SDS011;54895;40.928;14.480;2023-12-20T01:07:33;55.45;;;34.28;;
63688;SDS011;54895;40.928;14.480;2023-12-20T01:09:59;60.40;;;36.95;;
63688;SDS011;54895;40.928;14.480;2023-12-20T01:12:25;63.50;;;38.35;;
63688;SDS011;54895;40.928;14.480;2023-12-20T01:14:51;58.92;;;36.97;;
63688;SDS011;54895;40.928;14.480;2023-12-20T01:17:17;55.78;;;36.55;;
63688;SDS011;54895;40.928;14.480;2023-12-20T01:19:43;56.28;;;36.40;;
63688;SDS011;54895;40.928;14.480;2023-12-20T01:22:09;57.35;;;36.13;;
63688;SDS011;54895;40.928;14.480;2023-12-20T01:24:35;56.60;;;35.53;;
63688;SDS011;54895;40.928;14.480;2023-12-20T01:27:01;61.55;;;38.17;;
63688;SDS011;54895;40.928;14.480;2023-12-20T01:29:28;62.40;;;39.58;;
63688;SDS011;54895;40.928;14.480;2023-12-20T01:31:54;64.13;;;40.35;;
63688;SDS011;54895;40.928;14.480;2023-12-20T01:34:20;63.05;;;39.33;;
63688;SDS011;54895;40.928;14.480;2023-12-20T01:36:46;60.83;;;38.00;;
63688;SDS011;54895;40.928;14.480;2023-12-20T01:39:12;65.18;;;38.92;;
63688;SDS011;54895;40.928;14.480;2023-12-20T01:41:38;60.78;;;37.30;;
63688;SDS011;54895;40.928;14.480;2023-12-20T01:44:04;52.90;;;33.38;;
63688;SDS011;54895;40.928;14.480;2023-12-20T01:49:59;48.60;;;30.77;;
63688;SDS011;54895;40.928;14.480;2023-12-20T01:52:29;48.47;;;32.13;;
63688;SDS011;54895;40.928;14.480;2023-12-20T01:54:56;49.78;;;31.83;;
63688;SDS011;54895;40.928;14.480;2023-12-20T01:57:28;51.17;;;31.33;;
63688;SDS011;54895;40.928;14.480;2023-12-20T01:59:55;48.88;;;29.80;;
63688;SDS011;54895;40.928;14.480;2023-12-20T02:02:22;46.63;;;29.15;;
63688;SDS011;54895;40.928;14.480;2023-12-20T02:04:48;48.30;;;30.48;;
63688;SDS011;54895;40.928;14.480;2023-12-20T02:07:16;44.60;;;28.95;;
63688;SDS011;54895;40.928;14.480;2023-12-20T02:09:44;44.78;;;28.58;;
63688;SDS011;54895;40.928;14.480;2023-12-20T02:12:11;40.92;;;27.33;;
63688;SDS011;54895;40.928;14.480;2023-12-20T02:14:38;41.53;;;27.52;;
63688;SDS011;54895;40.928;14.480;2023-12-20T02:17:04;41.13;;;26.17;;
63688;SDS011;54895;40.928;14.480;2023-12-20T02:19:31;43.97;;;26.45;;
63688;SDS011;54895;40.928;14.480;2023-12-20T02:22:13;40.38;;;26.08;;
63688;SDS011;54895;40.928;14.480;2023-12-20T02:24:39;40.03;;;27.77;;
63688;SDS011;54895;40.928;14.480;2023-12-20T02:27:06;43.58;;;29.58;;
63688;SDS011;54895;40.928;14.480;2023-12-20T02:29:33;41.75;;;27.50;;
63688;SDS011;54895;40.928;14.480;2023-12-20T02:31:59;42.35;;;27.13;;
63688;SDS011;54895;40.928;14.480;2023-12-20T02:34:26;47.88;;;29.40;;
63688;SDS011;54895;40.928;14.480;2023-12-20T02:36:52;43.85;;;28.20;;
63688;SDS011;54895;40.928;14.480;2023-12-20T02:39:19;42.13;;;28.20;;
63688;SDS011;54895;40.928;14.480;2023-12-20T02:41:45;41.13;;;27.85;;
63688;SDS011;54895;40.928;14.480;2023-12-20T02:44:12;39.30;;;26.40;;
63688;SDS011;54895;40.928;14.480;2023-12-20T02:49:55;40.88;;;26.50;;
63688;SDS011;54895;40.928;14.480;2023-12-20T02:52:23;42.83;;;26.70;;
63688;SDS011;54895;40.928;14.480;2023-12-20T02:54:50;41.85;;;29.05;;
63688;SDS011;54895;40.928;14.480;2023-12-20T02:57:17;47.53;;;30.00;;
63688;SDS011;54895;40.928;14.480;2023-12-20T02:59:44;46.20;;;31.88;;
63688;SDS011;54895;40.928;14.480;2023-12-20T03:02:10;48.53;;;30.30;;
63688;SDS011;54895;40.928;14.480;2023-12-20T03:04:37;44.38;;;29.92;;
63688;SDS011;54895;40.928;14.480;2023-12-20T03:07:04;46.38;;;28.42;;
63688;SDS011;54895;40.928;14.480;2023-12-20T03:09:31;43.83;;;29.33;;
63688;SDS011;54895;40.928;14.480;2023-12-20T03:12:00;42.90;;;29.00;;
63688;SDS011;54895;40.928;14.480;2023-12-20T03:14:27;41.22;;;26.88;;
63688;SDS011;54895;40.928;14.480;2023-12-20T03:16:53;40.55;;;25.73;;
63688;SDS011;54895;40.928;14.480;2023-12-20T03:19:20;45.78;;;27.33;;
63688;SDS011;54895;40.928;14.480;2023-12-20T03:21:47;42.15;;;27.60;;
63688;SDS011;54895;40.928;14.480;2023-12-20T03:24:14;47.40;;;30.33;;
63688;SDS011;54895;40.928;14.480;2023-12-20T03:26:41;41.47;;;27.48;;
63688;SDS011;54895;40.928;14.480;2023-12-20T03:29:07;47.10;;;29.25;;
63688;SDS011;54895;40.928;14.480;2023-12-20T03:31:35;44.88;;;30.20;;
63688;SDS011;54895;40.928;14.480;2023-12-20T03:34:01;46.63;;;29.90;;
63688;SDS011;54895;40.928;14.480;2023-12-20T03:36:28;51.00;;;31.67;;
63688;SDS011;54895;40.928;14.480;2023-12-20T03:38:55;45.05;;;31.50;;
63688;SDS011;54895;40.928;14.480;2023-12-20T03:41:22;51.65;;;32.03;;
63688;SDS011;54895;40.928;14.480;2023-12-20T03:43:49;48.30;;;31.13;;
63688;SDS011;54895;40.928;14.480;2023-12-20T03:50:09;51.72;;;31.50;;
63688;SDS011;54895;40.928;14.480;2023-12-20T03:52:36;44.80;;;31.55;;
63688;SDS011;54895;40.928;14.480;2023-12-20T03:55:02;52.03;;;32.85;;
63688;SDS011;54895;40.928;14.480;2023-12-20T03:57:28;50.13;;;32.00;;
63688;SDS011;54895;40.928;14.480;2023-12-20T03:59:55;53.30;;;31.52;;
63688;SDS011;54895;40.928;14.480;2023-12-20T04:02:21;47.80;;;32.05;;
63688;SDS011;54895;40.928;14.480;2023-12-20T04:04:47;51.03;;;32.05;;
63688;SDS011;54895;40.928;14.480;2023-12-20T04:07:13;49.17;;;32.65;;
63688;SDS011;54895;40.928;14.480;2023-12-20T04:09:40;53.63;;;33.03;;
63688;SDS011;54895;40.928;14.480;2023-12-20T04:12:07;51.20;;;32.08;;
63688;SDS011;54895;40.928;14.480;2023-12-20T04:14:33;45.30;;;29.85;;
63688;SDS011;54895;40.928;14.480;2023-12-20T04:16:59;45.17;;;29.95;;
63688;SDS011;54895;40.928;14.480;2023-12-20T04:19:25;52.80;;;32.75;;
63688;SDS011;54895;40.928;14.480;2023-12-20T04:21:52;51.50;;;33.58;;
63688;SDS011;54895;40.928;14.480;2023-12-20T04:24:18;52.03;;;32.10;;
63688;SDS011;54895;40.928;14.480;2023-12-20T04:26:44;45.78;;;30.52;;
63688;SDS011;54895;40.928;14.480;2023-12-20T04:29:10;48.28;;;30.30;;
63688;SDS011;54895;40.928;14.480;2023-12-20T04:31:37;49.70;;;30.10;;
63688;SDS011;54895;40.928;14.480;2023-12-20T04:34:03;42.33;;;29.52;;
63688;SDS011;54895;40.928;14.480;2023-12-20T04:36:29;44.60;;;28.05;;
63688;SDS011;54895;40.928;14.480;2023-12-20T04:38:56;42.75;;;27.55;;
63688;SDS011;54895;40.928;14.480;2023-12-20T04:41:22;40.30;;;27.10;;
63688;SDS011;54895;40.928;14.480;2023-12-20T04:43:48;34.92;;;23.80;;
63688;SDS011;54895;40.928;14.480;2023-12-20T04:50:08;37.50;;;24.13;;
63688;SDS011;54895;40.928;14.480;2023-12-20T04:52:35;36.63;;;23.30;;
63688;SDS011;54895;40.928;14.480;2023-12-20T04:55:01;39.80;;;25.40;;
63688;SDS011;54895;40.928;14.480;2023-12-20T04:57:28;37.88;;;23.73;;
63688;SDS011;54895;40.928;14.480;2023-12-20T04:59:54;33.20;;;21.95;;
63688;SDS011;54895;40.928;14.480;2023-12-20T05:02:20;34.72;;;22.88;;
63688;SDS011;54895;40.928;14.480;2023-12-20T05:04:46;35.08;;;23.08;;
63688;SDS011;54895;40.928;14.480;2023-12-20T05:07:13;42.60;;;28.15;;
63688;SDS011;54895;40.928;14.480;2023-12-20T05:09:39;46.20;;;28.50;;
63688;SDS011;54895;40.928;14.480;2023-12-20T05:12:05;43.13;;;27.75;;
63688;SDS011;54895;40.928;14.480;2023-12-20T05:14:32;42.55;;;27.85;;
63688;SDS011;54895;40.928;14.480;2023-12-20T05:16:58;46.20;;;27.88;;
63688;SDS011;54895;40.928;14.480;2023-12-20T05:19:24;41.08;;;27.27;;
63688;SDS011;54895;40.928;14.480;2023-12-20T05:21:50;39.33;;;26.88;;
63688;SDS011;54895;40.928;14.480;2023-12-20T05:24:17;42.42;;;25.38;;
63688;SDS011;54895;40.928;14.480;2023-12-20T05:26:43;37.58;;;25.65;;
63688;SDS011;54895;40.928;14.480;2023-12-20T05:29:10;36.30;;;26.05;;
63688;SDS011;54895;40.928;14.480;2023-12-20T05:31:36;42.88;;;27.38;;
63688;SDS011;54895;40.928;14.480;2023-12-20T05:34:02;45.45;;;28.95;;
63688;SDS011;54895;40.928;14.480;2023-12-20T05:36:28;43.25;;;28.55;;
63688;SDS011;54895;40.928;14.480;2023-12-20T05:38:54;41.58;;;28.50;;
63688;SDS011;54895;40.928;14.480;2023-12-20T05:41:20;41.90;;;28.70;;
63688;SDS011;54895;40.928;14.480;2023-12-20T05:43:47;40.20;;;27.65;;
63688;SDS011;54895;40.928;14.480;2023-12-20T05:50:06;47.15;;;28.42;;
63688;SDS011;54895;40.928;14.480;2023-12-20T05:52:32;44.95;;;28.77;;
63688;SDS011;54895;40.928;14.480;2023-12-20T05:54:58;49.60;;;28.73;;
63688;SDS011;54895;40.928;14.480;2023-12-20T05:57:28;44.70;;;28.63;;
63688;SDS011;54895;40.928;14.480;2023-12-20T05:59:54;46.22;;;28.02;;
63688;SDS011;54895;40.928;14.480;2023-12-20T06:02:20;46.88;;;28.90;;
63688;SDS011;54895;40.928;14.480;2023-12-20T06:04:49;44.70;;;29.50;;
63688;SDS011;54895;40.928;14.480;2023-12-20T06:07:15;49.03;;;29.83;;
63688;SDS011;54895;40.928;14.480;2023-12-20T06:09:41;45.80;;;29.88;;
63688;SDS011;54895;40.928;14.480;2023-12-20T06:12:07;44.03;;;29.00;;
63688;SDS011;54895;40.928;14.480;2023-12-20T06:14:34;46.83;;;29.90;;
63688;SDS011;54895;40.928;14.480;2023-12-20T06:17:00;44.20;;;29.50;;
63688;SDS011;54895;40.928;14.480;2023-12-20T06:19:27;46.40;;;29.70;;
63688;SDS011;54895;40.928;14.480;2023-12-20T06:21:53;37.78;;;24.88;;
63688;SDS011;54895;40.928;14.480;2023-12-20T06:24:19;39.10;;;25.35;;
63688;SDS011;54895;40.928;14.480;2023-12-20T06:26:45;37.63;;;25.20;;
63688;SDS011;54895;40.928;14.480;2023-12-20T06:29:11;38.50;;;25.75;;
63688;SDS011;54895;40.928;14.480;2023-12-20T06:31:37;37.65;;;24.55;;
63688;SDS011;54895;40.928;14.480;2023-12-20T06:34:03;34.92;;;22.92;;
63688;SDS011;54895;40.928;14.480;2023-12-20T06:36:29;32.47;;;22.27;;
63688;SDS011;54895;40.928;14.480;2023-12-20T06:38:55;37.50;;;22.45;;
63688;SDS011;54895;40.928;14.480;2023-12-20T06:41:21;33.88;;;22.35;;
63688;SDS011;54895;40.928;14.480;2023-12-20T06:43:50;34.92;;;22.70;;
63688;SDS011;54895;40.928;14.480;2023-12-20T06:46:18;40.05;;;23.63;;
63688;SDS011;54895;40.928;14.480;2023-12-20T06:49:22;38.13;;;24.77;;
63688;SDS011;54895;40.928;14.480;2023-12-20T06:51:49;39.50;;;24.23;;
63688;SDS011;54895;40.928;14.480;2023-12-20T06:54:16;40.40;;;24.70;;
63688;SDS011;54895;40.928;14.480;2023-12-20T06:56:42;35.92;;;23.15;;
63688;SDS011;54895;40.928;14.480;2023-12-20T06:59:09;35.20;;;21.75;;
63688;SDS011;54895;40.928;14.480;2023-12-20T07:01:35;32.88;;;21.30;;
63688;SDS011;54895;40.928;14.480;2023-12-20T07:04:03;34.25;;;20.70;;
63688;SDS011;54895;40.928;14.480;2023-12-20T07:06:29;36.13;;;21.08;;
63688;SDS011;54895;40.928;14.480;2023-12-20T07:08:56;39.70;;;22.70;;
63688;SDS011;54895;40.928;14.480;2023-12-20T07:11:22;36.83;;;21.75;;
63688;SDS011;54895;40.928;14.480;2023-12-20T07:13:50;36.70;;;22.13;;
63688;SDS011;54895;40.928;14.480;2023-12-20T07:16:17;42.95;;;21.90;;
63688;SDS011;54895;40.928;14.480;2023-12-20T07:18:44;40.33;;;23.50;;
63688;SDS011;54895;40.928;14.480;2023-12-20T07:21:11;42.38;;;24.65;;
63688;SDS011;54895;40.928;14.480;2023-12-20T07:23:37;45.50;;;22.77;;
63688;SDS011;54895;40.928;14.480;2023-12-20T07:26:03;39.78;;;22.88;;
63688;SDS011;54895;40.928;14.480;2023-12-20T07:28:30;41.40;;;23.30;;
63688;SDS011;54895;40.928;14.480;2023-12-20T07:30:56;42.17;;;24.13;;
63688;SDS011;54895;40.928;14.480;2023-12-20T07:33:25;38.72;;;22.70;;
63688;SDS011;54895;40.928;14.480;2023-12-20T07:35:51;44.38;;;24.20;;
63688;SDS011;54895;40.928;14.480;2023-12-20T07:38:17;36.13;;;22.35;;
63688;SDS011;54895;40.928;14.480;2023-12-20T07:40:43;40.20;;;22.88;;
63688;SDS011;54895;40.928;14.480;2023-12-20T07:43:09;34.75;;;22.73;;
63688;SDS011;54895;40.928;14.480;2023-12-20T07:45:35;39.42;;;24.13;;
63688;SDS011;54895;40.928;14.480;2023-12-20T07:51:21;36.22;;;24.00;;
63688;SDS011;54895;40.928;14.480;2023-12-20T07:53:48;38.83;;;23.98;;
63688;SDS011;54895;40.928;14.480;2023-12-20T07:56:17;42.90;;;24.23;;
63688;SDS011;54895;40.928;14.480;2023-12-20T07:58:44;40.10;;;23.90;;
63688;SDS011;54895;40.928;14.480;2023-12-20T08:01:10;38.90;;;24.00;;
63688;SDS011;54895;40.928;14.480;2023-12-20T08:03:37;42.50;;;24.00;;
63688;SDS011;54895;40.928;14.480;2023-12-20T08:06:03;34.85;;;21.67;;
63688;SDS011;54895;40.928;14.480;2023-12-20T08:08:30;30.77;;;21.20;;
63688;SDS011;54895;40.928;14.480;2023-12-20T08:10:56;41.03;;;22.38;;
63688;SDS011;54895;40.928;14.480;2023-12-20T08:13:25;40.67;;;24.13;;
63688;SDS011;54895;40.928;14.480;2023-12-20T08:15:52;35.28;;;21.48;;
63688;SDS011;54895;40.928;14.480;2023-12-20T08:18:18;41.30;;;24.80;;
63688;SDS011;54895;40.928;14.480;2023-12-20T08:20:44;36.92;;;21.77;;
63688;SDS011;54895;40.928;14.480;2023-12-20T08:23:10;41.25;;;24.60;;
63688;SDS011;54895;40.928;14.480;2023-12-20T08:25:36;41.15;;;24.17;;
63688;SDS011;54895;40.928;14.480;2023-12-20T08:28:02;40.97;;;25.35;;
63688;SDS011;54895;40.928;14.480;2023-12-20T08:30:29;40.38;;;24.35;;
63688;SDS011;54895;40.928;14.480;2023-12-20T08:32:55;33.40;;;22.55;;
63688;SDS011;54895;40.928;14.480;2023-12-20T08:35:21;36.20;;;22.52;;
63688;SDS011;54895;40.928;14.480;2023-12-20T08:37:47;34.05;;;23.13;;
63688;SDS011;54895;40.928;14.480;2023-12-20T08:40:13;34.50;;;22.50;;
63688;SDS011;54895;40.928;14.480;2023-12-20T08:42:40;30.50;;;20.58;;
63688;SDS011;54895;40.928;14.480;2023-12-20T08:45:06;32.30;;;21.08;;
63688;SDS011;54895;40.928;14.480;2023-12-20T08:50:55;31.83;;;20.17;;
63688;SDS011;54895;40.928;14.480;2023-12-20T08:53:21;32.15;;;21.58;;
63688;SDS011;54895;40.928;14.480;2023-12-20T08:55:48;36.72;;;21.58;;
63688;SDS011;54895;40.928;14.480;2023-12-20T08:58:15;35.97;;;23.52;;
63688;SDS011;54895;40.928;14.480;2023-12-20T09:00:41;34.92;;;21.77;;
63688;SDS011;54895;40.928;14.480;2023-12-20T09:03:09;31.63;;;20.58;;
63688;SDS011;54895;40.928;14.480;2023-12-20T09:05:35;33.15;;;22.52;;
63688;SDS011;54895;40.928;14.480;2023-12-20T09:08:02;29.35;;;20.73;;
63688;SDS011;54895;40.928;14.480;2023-12-20T09:10:28;35.30;;;22.38;;
63688;SDS011;54895;40.928;14.480;2023-12-20T09:12:55;33.03;;;20.58;;
63688;SDS011;54895;40.928;14.480;2023-12-20T09:15:24;32.53;;;20.77;;
63688;SDS011;54895;40.928;14.480;2023-12-20T09:17:51;25.27;;;16.58;;
63688;SDS011;54895;40.928;14.480;2023-12-20T09:20:18;30.88;;;19.63;;
63688;SDS011;54895;40.928;14.480;2023-12-20T09:22:44;23.10;;;16.77;;
63688;SDS011;54895;40.928;14.480;2023-12-20T09:25:11;23.75;;;15.63;;
63688;SDS011;54895;40.928;14.480;2023-12-20T09:27:38;26.67;;;17.00;;
63688;SDS011;54895;40.928;14.480;2023-12-20T09:30:05;23.67;;;15.75;;
63688;SDS011;54895;40.928;14.480;2023-12-20T09:32:31;24.73;;;16.02;;
63688;SDS011;54895;40.928;14.480;2023-12-20T09:34:57;21.40;;;15.38;;
63688;SDS011;54895;40.928;14.480;2023-12-20T09:37:27;23.25;;;16.23;;
63688;SDS011;54895;40.928;14.480;2023-12-20T09:39:53;21.67;;;16.20;;
63688;SDS011;54895;40.928;14.480;2023-12-20T09:42:36;22.17;;;15.70;;
63688;SDS011;54895;40.928;14.480;2023-12-20T09:45:04;25.67;;;16.98;;
63688;SDS011;54895;40.928;14.480;2023-12-20T09:53:23;25.90;;;16.25;;
63688;SDS011;54895;40.928;14.480;2023-12-20T09:55:58;25.67;;;17.77;;
63688;SDS011;54895;40.928;14.480;2023-12-20T09:58:25;25.05;;;17.17;;
63688;SDS011;54895;40.928;14.480;2023-12-20T10:00:51;26.23;;;16.00;;
63688;SDS011;54895;40.928;14.480;2023-12-20T10:03:17;23.33;;;15.77;;
63688;SDS011;54895;40.928;14.480;2023-12-20T10:05:44;24.23;;;15.88;;
63688;SDS011;54895;40.928;14.480;2023-12-20T10:08:10;25.63;;;16.80;;
63688;SDS011;54895;40.928;14.480;2023-12-20T10:10:36;19.05;;;14.05;;
63688;SDS011;54895;40.928;14.480;2023-12-20T10:15:28;21.00;;;14.85;;
63688;SDS011;54895;40.928;14.480;2023-12-20T10:17:54;20.30;;;14.23;;
63688;SDS011;54895;40.928;14.480;2023-12-20T10:20:23;16.17;;;12.05;;
63688;SDS011;54895;40.928;14.480;2023-12-20T10:22:49;17.55;;;13.27;;
63688;SDS011;54895;40.928;14.480;2023-12-20T10:25:15;14.93;;;10.65;;
63688;SDS011;54895;40.928;14.480;2023-12-20T10:27:41;17.73;;;10.85;;
63688;SDS011;54895;40.928;14.480;2023-12-20T10:30:07;15.90;;;11.18;;
63688;SDS011;54895;40.928;14.480;2023-12-20T10:32:34;18.15;;;11.75;;
63688;SDS011;54895;40.928;14.480;2023-12-20T10:35:00;14.60;;;10.32;;
63688;SDS011;54895;40.928;14.480;2023-12-20T10:37:26;15.93;;;10.63;;
63688;SDS011;54895;40.928;14.480;2023-12-20T10:39:53;18.20;;;11.25;;
63688;SDS011;54895;40.928;14.480;2023-12-20T10:42:26;14.25;;;10.88;;
63688;SDS011;54895;40.928;14.480;2023-12-20T10:44:54;15.68;;;10.82;;
63688;SDS011;54895;40.928;14.480;2023-12-20T10:50:53;15.80;;;11.30;;
63688;SDS011;54895;40.928;14.480;2023-12-20T10:53:21;13.63;;;9.98;;
63688;SDS011;54895;40.928;14.480;2023-12-20T10:55:48;14.75;;;10.38;;
63688;SDS011;54895;40.928;14.480;2023-12-20T10:58:15;17.23;;;10.60;;
63688;SDS011;54895;40.928;14.480;2023-12-20T11:00:42;13.73;;;9.88;;
63688;SDS011;54895;40.928;14.480;2023-12-20T11:03:09;15.55;;;11.05;;
63688;SDS011;54895;40.928;14.480;2023-12-20T11:06:03;16.85;;;11.43;;
63688;SDS011;54895;40.928;14.480;2023-12-20T11:08:39;15.70;;;11.15;;
63688;SDS011;54895;40.928;14.480;2023-12-20T11:11:11;16.92;;;11.45;;
63688;SDS011;54895;40.928;14.480;2023-12-20T11:13:48;14.98;;;10.73;;
63688;SDS011;54895;40.928;14.480;2023-12-20T11:16:19;19.30;;;11.52;;
63688;SDS011;54895;40.928;14.480;2023-12-20T11:18:45;15.85;;;11.15;;
63688;SDS011;54895;40.928;14.480;2023-12-20T11:21:11;15.13;;;10.75;;
63688;SDS011;54895;40.928;14.480;2023-12-20T11:23:37;15.70;;;11.13;;
63688;SDS011;54895;40.928;14.480;2023-12-20T11:26:03;16.52;;;10.30;;
63688;SDS011;54895;40.928;14.480;2023-12-20T11:28:29;14.48;;;9.63;;
63688;SDS011;54895;40.928;14.480;2023-12-20T11:30:59;14.38;;;9.75;;
63688;SDS011;54895;40.928;14.480;2023-12-20T11:33:27;15.52;;;10.32;;
63688;SDS011;54895;40.928;14.480;2023-12-20T11:35:55;17.00;;;10.45;;
63688;SDS011;54895;40.928;14.480;2023-12-20T11:38:21;16.90;;;11.20;;
63688;SDS011;54895;40.928;14.480;2023-12-20T11:40:48;15.27;;;9.85;;
63688;SDS011;54895;40.928;14.480;2023-12-20T11:46:16;10.65;;;7.80;;
63688;SDS011;54895;40.928;14.480;2023-12-20T11:51:28;12.02;;;8.90;;
63688;SDS011;54895;40.928;14.480;2023-12-20T11:53:54;14.75;;;10.65;;
63688;SDS011;54895;40.928;14.480;2023-12-20T11:56:20;14.57;;;9.32;;
63688;SDS011;54895;40.928;14.480;2023-12-20T11:58:46;13.02;;;9.05;;
63688;SDS011;54895;40.928;14.480;2023-12-20T12:01:14;12.40;;;8.45;;
63688;SDS011;54895;40.928;14.480;2023-12-20T12:03:40;17.17;;;9.73;;
63688;SDS011;54895;40.928;14.480;2023-12-20T12:06:08;12.50;;;9.15;;
63688;SDS011;54895;40.928;14.480;2023-12-20T12:08:35;13.45;;;9.25;;
63688;SDS011;54895;40.928;14.480;2023-12-20T12:11:02;11.45;;;8.95;;
63688;SDS011;54895;40.928;14.480;2023-12-20T12:13:30;12.90;;;9.20;;
63688;SDS011;54895;40.928;14.480;2023-12-20T12:15:56;11.70;;;8.20;;
63688;SDS011;54895;40.928;14.480;2023-12-20T12:18:23;10.45;;;7.55;;
63688;SDS011;54895;40.928;14.480;2023-12-20T12:20:49;15.10;;;9.63;;
63688;SDS011;54895;40.928;14.480;2023-12-20T12:23:22;16.42;;;10.13;;
63688;SDS011;54895;40.928;14.480;2023-12-20T12:25:48;13.52;;;8.77;;
63688;SDS011;54895;40.928;14.480;2023-12-20T12:28:15;12.93;;;9.77;;
63688;SDS011;54895;40.928;14.480;2023-12-20T12:30:41;13.45;;;10.05;;
63688;SDS011;54895;40.928;14.480;2023-12-20T12:33:08;17.02;;;10.32;;
63688;SDS011;54895;40.928;14.480;2023-12-20T12:35:34;14.20;;;10.45;;
63688;SDS011;54895;40.928;14.480;2023-12-20T12:38:01;15.30;;;11.10;;
63688;SDS011;54895;40.928;14.480;2023-12-20T12:40:28;16.80;;;11.10;;
63688;SDS011;54895;40.928;14.480;2023-12-20T12:42:55;12.85;;;7.35;;
63688;SDS011;54895;40.928;14.480;2023-12-20T12:45:21;12.55;;;6.13;;
63688;SDS011;54895;40.928;14.480;2023-12-20T12:51:07;8.15;;;5.78;;
63688;SDS011;54895;40.928;14.480;2023-12-20T12:53:38;7.93;;;5.20;;
63688;SDS011;54895;40.928;14.480;2023-12-20T12:56:04;7.03;;;5.13;;
63688;SDS011;54895;40.928;14.480;2023-12-20T12:58:30;6.90;;;4.50;;
63688;SDS011;54895;40.928;14.480;2023-12-20T13:00:56;6.07;;;4.50;;
63688;SDS011;54895;40.928;14.480;2023-12-20T13:03:22;8.23;;;5.35;;
63688;SDS011;54895;40.928;14.480;2023-12-20T13:05:48;8.93;;;5.43;;
63688;SDS011;54895;40.928;14.480;2023-12-20T13:08:14;8.07;;;5.00;;
63688;SDS011;54895;40.928;14.480;2023-12-20T13:10:40;8.90;;;5.22;;
63688;SDS011;54895;40.928;14.480;2023-12-20T13:13:06;8.43;;;5.10;;
63688;SDS011;54895;40.928;14.480;2023-12-20T13:15:32;7.85;;;5.00;;
63688;SDS011;54895;40.928;14.480;2023-12-20T13:17:58;7.90;;;5.40;;
63688;SDS011;54895;40.928;14.480;2023-12-20T13:20:25;6.70;;;5.05;;
63688;SDS011;54895;40.928;14.480;2023-12-20T13:22:51;5.95;;;4.43;;
63688;SDS011;54895;40.928;14.480;2023-12-20T13:25:17;7.45;;;4.70;;
63688;SDS011;54895;40.928;14.480;2023-12-20T13:27:43;8.82;;;5.07;;
63688;SDS011;54895;40.928;14.480;2023-12-20T13:30:09;7.18;;;5.03;;
63688;SDS011;54895;40.928;14.480;2023-12-20T13:32:35;11.15;;;5.30;;
63688;SDS011;54895;40.928;14.480;2023-12-20T13:35:01;7.78;;;5.43;;
63688;SDS011;54895;40.928;14.480;2023-12-20T13:37:27;8.82;;;5.32;;
63688;SDS011;54895;40.928;14.480;2023-12-20T13:39:53;12.48;;;6.18;;
63688;SDS011;54895;40.928;14.480;2023-12-20T13:42:19;7.57;;;5.40;;
63688;SDS011;54895;40.928;14.480;2023-12-20T13:44:46;8.50;;;5.95;;
63688;SDS011;54895;40.928;14.480;2023-12-20T13:51:06;9.55;;;5.90;;
63688;SDS011;54895;40.928;14.480;2023-12-20T13:53:32;9.27;;;5.32;;
63688;SDS011;54895;40.928;14.480;2023-12-20T13:55:58;7.45;;;5.85;;
63688;SDS011;54895;40.928;14.480;2023-12-20T13:58:25;8.38;;;5.93;;
63688;SDS011;54895;40.928;14.480;2023-12-20T14:00:54;10.73;;;5.72;;
63688;SDS011;54895;40.928;14.480;2023-12-20T14:03:20;8.40;;;6.20;;
63688;SDS011;54895;40.928;14.480;2023-12-20T14:05:46;8.43;;;5.30;;
63688;SDS011;54895;40.928;14.480;2023-12-20T14:08:12;15.48;;;6.95;;
63688;SDS011;54895;40.928;14.480;2023-12-20T14:10:38;12.43;;;6.85;;
63688;SDS011;54895;40.928;14.480;2023-12-20T14:13:04;11.43;;;6.47;;
63688;SDS011;54895;40.928;14.480;2023-12-20T14:15:31;9.05;;;6.88;;
63688;SDS011;54895;40.928;14.480;2023-12-20T14:18:05;12.85;;;7.55;;
63688;SDS011;54895;40.928;14.480;2023-12-20T14:20:32;15.23;;;8.70;;
63688;SDS011;54895;40.928;14.480;2023-12-20T14:23:00;11.80;;;7.10;;
63688;SDS011;54895;40.928;14.480;2023-12-20T14:25:26;12.10;;;7.30;;
63688;SDS011;54895;40.928;14.480;2023-12-20T14:27:52;11.30;;;7.20;;
63688;SDS011;54895;40.928;14.480;2023-12-20T14:30:18;15.13;;;7.70;;
63688;SDS011;54895;40.928;14.480;2023-12-20T14:32:44;13.68;;;7.07;;
63688;SDS011;54895;40.928;14.480;2023-12-20T14:35:10;14.15;;;7.68;;
63688;SDS011;54895;40.928;14.480;2023-12-20T14:37:36;10.90;;;6.38;;
63688;SDS011;54895;40.928;14.480;2023-12-20T14:40:05;16.60;;;7.00;;
63688;SDS011;54895;40.928;14.480;2023-12-20T14:42:31;8.95;;;6.10;;
63688;SDS011;54895;40.928;14.480;2023-12-20T14:44:58;13.20;;;7.07;;
63688;SDS011;54895;40.928;14.480;2023-12-20T14:51:21;11.85;;;7.47;;
63688;SDS011;54895;40.928;14.480;2023-12-20T14:53:47;10.43;;;6.53;;
63688;SDS011;54895;40.928;14.480;2023-12-20T14:56:14;11.30;;;6.88;;
63688;SDS011;54895;40.928;14.480;2023-12-20T14:58:40;11.40;;;6.85;;
63688;SDS011;54895;40.928;14.480;2023-12-20T15:01:06;8.45;;;6.70;;
63688;SDS011;54895;40.928;14.480;2023-12-20T15:03:34;12.98;;;8.77;;
63688;SDS011;54895;40.928;14.480;2023-12-20T15:06:00;17.20;;;10.48;;